Time;durP1;ratioP1;P1;durP2;ratioP2;P2;SDS_P1;SDS_P2;PMS_P1;PMS_P2;Temp;Humidity;BMP_temperature;BMP_pressure;BME280_temperature;BME280_humidity;BME280_pressure;Samples;Min_cycle;Max_cycle;Signal;HPM_P1;HPM_P2
2021/07/08 00:00:39;;;;;;;;;2.00;2.00;;;;;21.01;45.68;101481.94;4886229;29;45415;-66
2021/07/08 00:03:05;;;;;;;;;2.75;2.25;;;;;21.01;45.61;101472.94;4885840;29;45236;-66
2021/07/08 00:05:32;;;;;;;;;3.00;3.00;;;;;20.98;45.15;101465.00;4885896;29;46111;-66
2021/07/08 00:08:00;;;;;;;;;3.00;1.50;;;;;21.00;45.77;101473.91;4885807;29;45359;-66
2021/07/08 00:10:30;;;;;;;;;2.00;2.00;;;;;21.08;45.73;101488.75;4886364;29;45507;-66
2021/07/08 00:12:57;;;;;;;;;4.25;3.00;;;;;21.05;45.85;101486.22;4872379;29;45540;-65
2021/07/08 00:15:23;;;;;;;;;2.00;2.00;;;;;20.89;46.09;101464.63;4885718;29;45494;-66
2021/07/08 00:17:49;;;;;;;;;3.00;3.00;;;;;21.03;45.93;101488.16;4885710;29;45320;-65
2021/07/08 00:20:18;;;;;;;;;4.00;2.50;;;;;21.01;45.88;101486.50;4885575;29;45259;-66
2021/07/08 00:22:44;;;;;;;;;3.25;3.00;;;;;20.92;46.47;101478.00;4885799;29;45242;-65
2021/07/08 00:25:22;;;;;;;;;2.00;2.00;;;;;20.98;46.62;101482.16;4889208;29;46134;-66
2021/07/08 00:27:47;;;;;;;;;2.00;1.00;;;;;20.96;46.56;101486.81;4868588;29;45190;-66
2021/07/08 00:30:13;;;;;;;;;3.75;3.00;;;;;20.67;47.10;101442.56;4885627;29;45841;-65
2021/07/08 00:32:40;;;;;;;;;4.50;3.00;;;;;20.87;46.84;101485.56;4886951;29;45507;-65
2021/07/08 00:35:06;;;;;;;;;2.50;2.50;;;;;20.83;46.99;101486.72;4884342;29;46880;-66
2021/07/08 00:37:32;;;;;;;;;3.50;2.00;;;;;20.85;47.05;101494.78;4895139;29;45277;-66
2021/07/08 00:39:57;;;;;;;;;1.50;1.50;;;;;20.78;47.15;101482.56;4888182;29;45408;-65
2021/07/08 00:42:22;;;;;;;;;2.75;2.50;;;;;20.76;47.37;101490.78;4889025;29;45481;-65
2021/07/08 00:44:48;;;;;;;;;3.25;3.25;;;;;20.66;47.43;101482.34;4885211;29;45339;-66
2021/07/08 00:47:13;;;;;;;;;2.75;2.75;;;;;20.62;47.10;101475.38;4883996;29;46178;-65
2021/07/08 00:49:38;;;;;;;;;3.75;3.00;;;;;20.61;47.44;101472.75;4885386;29;45291;-65
2021/07/08 00:52:04;;;;;;;;;1.00;1.00;;;;;20.66;47.31;101487.78;4885269;29;45235;-65
2021/07/08 00:54:30;;;;;;;;;5.00;3.00;;;;;20.63;47.91;101481.69;4885120;29;46499;-66
2021/07/08 00:56:55;;;;;;;;;3.00;3.00;;;;;20.59;47.85;101480.97;4884974;29;45238;-65
2021/07/08 00:59:21;;;;;;;;;3.00;3.00;;;;;20.64;47.81;101494.28;4885245;29;45320;-65
2021/07/08 01:01:47;;;;;;;;;2.00;2.00;;;;;20.53;47.92;101479.53;4885173;29;45535;-66
2021/07/08 01:04:14;;;;;;;;;2.50;2.50;;;;;20.59;48.11;101491.81;4883519;29;47504;-65
2021/07/08 01:06:44;;;;;;;;;4.00;4.00;;;;;20.43;47.95;101464.81;4883906;29;45497;-66
2021/07/08 01:09:11;;;;;;;;;4.25;2.25;;;;;20.57;48.17;101495.63;4885920;29;45219;-66
2021/07/08 01:11:36;;;;;;;;;2.00;2.00;;;;;20.44;48.37;101484.66;4873626;29;45496;-65
2021/07/08 01:14:03;;;;;;;;;2.75;2.75;;;;;20.46;48.11;101488.13;4884558;29;45246;-66
2021/07/08 01:16:28;;;;;;;;;3.50;2.75;;;;;20.41;48.61;101474.84;4884902;29;45398;-66
2021/07/08 01:18:54;;;;;;;;;3.00;3.00;;;;;20.51;48.30;101488.72;4884883;29;45306;-65
2021/07/08 01:21:27;;;;;;;;;3.00;3.00;;;;;20.38;48.97;101475.06;4883340;29;45461;-65
2021/07/08 01:23:54;;;;;;;;;2.75;2.75;;;;;20.45;49.02;101487.28;4884747;29;46411;-66
2021/07/08 01:26:20;;;;;;;;;3.50;3.50;;;;;20.47;48.63;101498.03;4888738;29;45596;-65
2021/07/08 01:28:45;;;;;;;;;2.75;2.75;;;;;20.44;48.99;101487.38;4884773;29;45313;-65
2021/07/08 01:31:11;;;;;;;;;3.00;3.00;;;;;20.43;48.81;101497.34;4884826;29;45443;-66
2021/07/08 01:33:36;;;;;;;;;5.00;3.00;;;;;20.35;48.91;101483.41;4886061;29;46819;-66
2021/07/08 01:36:02;;;;;;;;;3.00;3.00;;;;;20.36;48.82;101499.56;4884708;29;45463;-65
2021/07/08 01:38:28;;;;;;;;;3.00;2.25;;;;;20.31;48.78;101495.38;4884538;29;45528;-66
2021/07/08 01:40:53;;;;;;;;;3.00;3.00;;;;;20.32;48.95;101499.84;4886638;29;45517;-66
2021/07/08 01:43:19;;;;;;;;;3.25;3.25;;;;;20.34;49.14;101506.91;4885906;29;47007;-66
2021/07/08 01:45:44;;;;;;;;;4.00;4.00;;;;;20.33;48.95;101507.00;4877943;29;45332;-65
2021/07/08 01:48:10;;;;;;;;;3.00;3.00;;;;;20.34;49.23;101520.44;4903345;29;45226;-65
2021/07/08 01:50:35;;;;;;;;;1.75;1.75;;;;;20.33;49.52;101518.72;4893029;29;45571;-65
2021/07/08 01:53:01;;;;;;;;;3.50;3.50;;;;;20.31;49.44;101522.47;4884357;29;46130;-66
2021/07/08 01:55:26;;;;;;;;;2.75;2.75;;;;;20.22;49.32;101496.81;4884504;29;45296;-66
2021/07/08 01:57:52;;;;;;;;;3.00;2.00;;;;;20.27;49.57;101510.09;4898544;29;45173;-66
2021/07/08 02:00:19;;;;;;;;;3.00;3.00;;;;;20.29;49.55;101522.56;4884427;29;45310;-66
2021/07/08 02:02:44;;;;;;;;;3.50;3.50;;;;;20.17;49.70;101505.22;4884048;29;45329;-65
2021/07/08 02:05:11;;;;;;;;;4.00;3.00;;;;;20.25;49.88;101520.16;4884380;29;45323;-65
2021/07/08 02:07:37;;;;;;;;;3.75;3.75;;;;;20.06;49.92;101494.16;4884386;29;45295;-66
2021/07/08 02:10:05;;;;;;;;;2.25;2.25;;;;;20.09;50.03;101503.94;4884891;29;45396;-66
2021/07/08 02:12:30;;;;;;;;;5.25;4.00;;;;;20.19;50.19;101521.41;4883839;29;46018;-65
2021/07/08 02:14:56;;;;;;;;;2.50;2.50;;;;;20.07;50.36;101508.59;4884255;29;45283;-66
2021/07/08 02:17:21;;;;;;;;;3.00;3.00;;;;;20.14;50.46;101518.94;4884108;29;45321;-66
2021/07/08 02:19:46;;;;;;;;;4.00;4.00;;;;;20.10;50.49;101511.13;4884169;29;45499;-65
2021/07/08 02:22:12;;;;;;;;;3.00;3.00;;;;;20.06;50.40;101510.41;4883851;29;46167;-65
2021/07/08 02:24:37;;;;;;;;;2.25;2.25;;;;;20.05;50.38;101505.13;4885308;29;45264;-66
2021/07/08 02:27:03;;;;;;;;;3.00;3.00;;;;;20.11;50.71;101518.28;4886752;29;45388;-66
2021/07/08 02:29:28;;;;;;;;;2.75;2.75;;;;;20.02;50.61;101513.41;4883930;29;45269;-65
2021/07/08 02:31:53;;;;;;;;;4.00;4.00;;;;;20.10;50.68;101527.38;4885582;29;46630;-66
2021/07/08 02:34:19;;;;;;;;;3.75;3.75;;;;;20.09;50.67;101526.50;4883741;29;45622;-65
2021/07/08 02:36:44;;;;;;;;;3.00;3.00;;;;;19.99;51.09;101509.91;4883955;29;45313;-66
2021/07/08 02:39:09;;;;;;;;;5.00;3.50;;;;;19.97;50.66;101506.44;4884007;29;45440;-66
2021/07/08 02:41:35;;;;;;;;;3.00;3.00;;;;;19.98;50.75;101508.19;4887378;29;46188;-66
2021/07/08 02:44:02;;;;;;;;;5.00;5.00;;;;;19.93;50.63;101501.28;4883679;29;45345;-66
2021/07/08 02:46:28;;;;;;;;;4.25;4.00;;;;;19.92;50.96;101500.41;4884000;29;45434;-66
2021/07/08 02:48:53;;;;;;;;;4.00;4.00;;;;;19.87;51.06;101494.41;4883840;29;45530;-66
2021/07/08 02:51:19;;;;;;;;;3.00;3.00;;;;;19.85;50.92;101501.75;4882386;29;45852;-65
2021/07/08 02:53:44;;;;;;;;;3.00;3.00;;;;;19.82;51.34;101501.06;4883824;29;45217;-66
2021/07/08 02:56:11;;;;;;;;;4.00;3.00;;;;;19.91;51.36;101520.38;4882490;29;45817;-65
2021/07/08 02:58:37;;;;;;;;;3.75;3.00;;;;;19.73;51.35;101486.16;4886501;29;45487;-66
2021/07/08 03:01:03;;;;;;;;;4.00;4.00;;;;;19.82;51.49;101507.34;4886692;29;45816;-65
2021/07/08 03:03:29;;;;;;;;;4.25;4.25;;;;;19.84;51.36;101512.69;4878367;29;45265;-66
2021/07/08 03:05:54;;;;;;;;;4.00;4.00;;;;;19.85;51.63;101503.59;4891088;29;45726;-66
2021/07/08 03:08:20;;;;;;;;;4.25;4.25;;;;;19.76;51.73;101496.88;4886981;29;45462;-65
2021/07/08 03:10:45;;;;;;;;;4.00;4.00;;;;;19.74;51.57;101498.75;4887275;29;45368;-66
2021/07/08 03:13:11;;;;;;;;;3.25;3.25;;;;;19.66;52.03;101492.91;4886494;29;45332;-66
2021/07/08 03:15:36;;;;;;;;;3.25;3.00;;;;;19.75;51.77;101514.09;4886899;29;45350;-65
2021/07/08 03:18:02;;;;;;;;;4.00;3.75;;;;;19.64;52.00;101501.13;4869826;29;45684;-66
2021/07/08 03:20:31;;;;;;;;;4.00;3.25;;;;;19.71;52.09;101516.09;4886397;29;45321;-66
2021/07/08 03:22:57;;;;;;;;;3.75;3.50;;;;;19.70;52.26;101517.03;4878693;29;45256;-65
2021/07/08 03:25:23;;;;;;;;;5.00;3.50;;;;;19.69;52.26;101522.53;4898661;29;45249;-66
2021/07/08 03:27:50;;;;;;;;;4.00;4.00;;;;;19.62;52.22;101516.59;4886368;29;45347;-66
2021/07/08 03:30:19;;;;;;;;;3.25;3.00;;;;;19.54;52.28;101508.91;4889279;29;46105;-65
2021/07/08 03:32:46;;;;;;;;;5.00;4.75;;;;;19.60;52.51;101527.53;4895359;29;45511;-65
2021/07/08 03:35:12;;;;;;;;;3.50;3.50;;;;;19.64;52.50;101536.34;4886184;29;45258;-66
2021/07/08 03:37:38;;;;;;;;;3.50;3.50;;;;;19.53;52.59;101526.16;4886403;29;45505;-66
2021/07/08 03:40:06;;;;;;;;;5.00;3.00;;;;;19.62;52.60;101538.28;4886059;29;46215;-66
2021/07/08 03:42:31;;;;;;;;;4.00;4.00;;;;;19.58;52.57;101540.28;4884298;29;45980;-66
2021/07/08 03:44:56;;;;;;;;;4.00;3.25;;;;;19.59;52.35;101539.31;4900826;29;45313;-65
2021/07/08 03:47:22;;;;;;;;;5.75;5.75;;;;;19.62;52.47;101540.97;4886323;29;45484;-65
2021/07/08 03:49:47;;;;;;;;;4.00;4.00;;;;;19.39;52.54;101510.66;4869085;29;46226;-66
2021/07/08 03:52:12;;;;;;;;;6.00;4.50;;;;;19.61;52.66;101548.25;4886240;29;45522;-65
2021/07/08 03:54:38;;;;;;;;;2.75;2.75;;;;;19.54;52.63;101543.25;4869235;29;45406;-65
2021/07/08 03:57:03;;;;;;;;;4.50;4.50;;;;;19.61;52.90;101553.66;4885984;29;45313;-65
2021/07/08 03:59:30;;;;;;;;;4.00;4.00;;;;;19.59;52.95;101549.28;4885796;29;45320;-65
2021/07/08 04:01:55;;;;;;;;;5.00;3.00;;;;;19.53;52.71;101547.81;4869151;29;45625;-65
2021/07/08 04:04:20;;;;;;;;;3.25;3.00;;;;;19.53;52.87;101553.22;4881160;29;45270;-65
2021/07/08 04:06:46;;;;;;;;;5.25;5.00;;;;;19.53;53.09;101552.31;4886197;29;45161;-65
2021/07/08 04:09:11;;;;;;;;;6.00;4.25;;;;;19.44;53.22;101551.94;4885809;29;46102;-66
2021/07/08 04:11:37;;;;;;;;;4.50;4.25;;;;;19.47;53.32;101558.97;4885836;29;45272;-66
2021/07/08 04:14:02;;;;;;;;;4.25;4.00;;;;;19.48;53.43;101567.97;4885811;29;45227;-65
2021/07/08 04:16:28;;;;;;;;;3.50;3.50;;;;;19.41;53.35;101557.50;4884576;29;45339;-65
2021/07/08 04:18:53;;;;;;;;;3.75;3.75;;;;;19.35;53.03;101547.00;4885481;29;47328;-66
2021/07/08 04:21:19;;;;;;;;;4.25;4.25;;;;;19.41;53.56;101556.59;4885534;29;45542;-66
2021/07/08 04:23:44;;;;;;;;;4.00;4.00;;;;;19.38;53.57;101552.25;4885815;29;45239;-65
2021/07/08 04:26:09;;;;;;;;;3.50;3.50;;;;;19.46;53.52;101575.31;4881917;29;45564;-66
2021/07/08 04:28:35;;;;;;;;;3.50;3.50;;;;;19.38;53.50;101559.53;4901368;29;45257;-65
2021/07/08 04:31:00;;;;;;;;;9.75;3.50;;;;;19.33;53.44;101556.16;4885666;29;45444;-66
2021/07/08 04:33:26;;;;;;;;;5.75;4.75;;;;;19.32;53.34;101551.72;4886868;29;45301;-65
2021/07/08 04:35:52;;;;;;;;;5.00;5.00;;;;;19.38;53.80;101568.50;4885537;29;45391;-65
2021/07/08 04:38:17;;;;;;;;;4.00;4.00;;;;;19.36;53.85;101573.13;4885377;29;46060;-65
2021/07/08 04:40:45;;;;;;;;;5.00;5.00;;;;;19.33;54.27;101559.78;4886045;29;45445;-65
2021/07/08 04:43:12;;;;;;;;;4.50;4.50;;;;;19.27;54.03;101556.53;4888174;29;45289;-65
2021/07/08 04:45:38;;;;;;;;;4.00;4.00;;;;;19.34;54.00;101563.34;4885419;29;45349;-65
2021/07/08 04:48:05;;;;;;;;;6.00;4.75;;;;;19.33;53.82;101565.19;4885159;29;46184;-65
2021/07/08 04:50:31;;;;;;;;;6.50;4.75;;;;;19.29;54.34;101560.88;4885339;29;45365;-65
2021/07/08 04:52:57;;;;;;;;;6.50;6.50;;;;;19.34;54.14;101580.44;4885223;29;45423;-66
2021/07/08 04:55:24;;;;;;;;;5.50;5.25;;;;;19.32;54.12;101568.84;4885339;29;45478;-65
2021/07/08 04:57:50;;;;;;;;;4.75;4.50;;;;;19.28;54.50;101569.09;4886854;29;45569;-65
2021/07/08 05:00:21;;;;;;;;;4.25;4.00;;;;;19.34;54.55;101574.16;4895647;29;45325;-66
2021/07/08 05:02:47;;;;;;;;;5.75;5.75;;;;;19.07;54.18;101542.28;4884933;29;45415;-65
2021/07/08 05:05:14;;;;;;;;;5.00;5.00;;;;;19.30;54.52;101583.44;4885093;29;45253;-66
2021/07/08 05:07:40;;;;;;;;;5.25;5.25;;;;;19.27;54.81;101579.06;4884961;29;46434;-65
2021/07/08 05:10:10;;;;;;;;;7.00;6.00;;;;;19.34;54.79;101596.69;4885847;29;45495;-65
2021/07/08 05:12:36;;;;;;;;;8.50;5.25;;;;;19.25;54.91;101581.84;4884795;29;45333;-66
2021/07/08 05:15:02;;;;;;;;;6.00;5.00;;;;;19.28;55.03;101586.22;4885127;29;45439;-66
2021/07/08 05:17:27;;;;;;;;;6.25;5.25;;;;;19.34;54.64;101595.81;4884537;29;47375;-66
2021/07/08 05:19:53;;;;;;;;;7.25;6.00;;;;;19.29;54.89;101596.06;4884223;29;45392;-65
2021/07/08 05:22:22;;;;;;;;;5.00;5.00;;;;;19.32;54.86;101601.31;4884732;29;45305;-66
2021/07/08 05:24:48;;;;;;;;;8.00;8.00;;;;;19.32;55.00;101604.03;4887389;29;45235;-65
2021/07/08 05:27:17;;;;;;;;;5.25;5.25;;;;;19.29;55.06;101596.06;4885907;29;46153;-65
2021/07/08 05:29:47;;;;;;;;;5.00;5.00;;;;;19.28;55.02;101593.44;4884774;29;45541;-66
2021/07/08 05:32:13;;;;;;;;;5.25;5.25;;;;;19.28;55.13;101593.44;4886569;29;45236;-66
2021/07/08 05:34:39;;;;;;;;;4.75;4.75;;;;;19.21;55.35;101588.41;4884587;29;45360;-65
2021/07/08 05:37:05;;;;;;;;;5.75;5.00;;;;;19.27;55.66;101603.41;4884219;29;46263;-65
2021/07/08 05:39:30;;;;;;;;;5.00;5.00;;;;;19.12;55.40;101582.63;4884037;29;45312;-66
2021/07/08 05:41:55;;;;;;;;;6.00;6.00;;;;;19.05;55.19;101571.25;4886989;29;45532;-65
2021/07/08 05:44:21;;;;;;;;;6.00;5.00;;;;;19.33;55.49;101618.44;4879556;29;45559;-66
2021/07/08 05:46:46;;;;;;;;;7.00;6.00;;;;;19.29;55.53;101617.72;4900446;29;46183;-66
2021/07/08 05:49:11;;;;;;;;;8.00;7.00;;;;;19.34;55.78;101629.16;4884438;29;45509;-69
2021/07/08 05:51:37;;;;;;;;;8.25;6.75;;;;;19.35;55.18;101628.22;4899603;29;45359;-69
2021/07/08 05:54:02;;;;;;;;;5.50;4.75;;;;;19.26;55.76;101612.47;4894430;29;45453;-69
2021/07/08 05:56:28;;;;;;;;;9.00;6.50;;;;;19.36;55.70;101619.16;4885871;29;45261;-69
2021/07/08 05:58:53;;;;;;;;;7.75;6.00;;;;;19.31;55.84;101609.53;4884169;29;45347;-69
2021/07/08 06:01:21;;;;;;;;;6.75;6.00;;;;;19.43;55.63;101625.09;4886213;29;45170;-68
2021/07/08 06:03:47;;;;;;;;;6.25;5.00;;;;;19.44;55.47;101616.00;4884052;29;45850;-69
2021/07/08 06:06:12;;;;;;;;;7.75;4.75;;;;;19.49;55.86;101613.91;4892018;29;46203;-69
2021/07/08 06:08:38;;;;;;;;;7.00;5.50;;;;;19.53;55.54;101614.59;4892092;29;45338;-69
2021/07/08 06:11:03;;;;;;;;;5.50;4.00;;;;;19.55;55.81;101613.56;4898971;29;45365;-69
2021/07/08 06:13:30;;;;;;;;;5.00;5.00;;;;;19.65;55.91;101618.50;4883632;29;45310;-69
2021/07/08 06:15:55;;;;;;;;;6.25;6.25;;;;;19.70;55.67;101621.81;4895524;29;47036;-69
2021/07/08 06:18:20;;;;;;;;;5.75;4.50;;;;;19.73;55.76;101627.03;4892919;29;45559;-69
2021/07/08 06:20:48;;;;;;;;;7.00;5.00;;;;;19.76;56.21;101626.88;4887504;29;45483;-69
2021/07/08 06:23:13;;;;;;;;;5.50;5.50;;;;;19.85;55.95;101623.66;4889567;29;45256;-69
2021/07/08 06:25:38;;;;;;;;;7.25;6.00;;;;;19.86;56.05;101628.09;4898267;29;46352;-69
2021/07/08 06:28:04;;;;;;;;;5.25;4.25;;;;;19.95;56.04;101633.00;4892293;29;45347;-69
2021/07/08 06:30:29;;;;;;;;;6.00;5.00;;;;;19.99;55.73;101633.69;4890676;29;45637;-69
2021/07/08 06:32:55;;;;;;;;;10.00;6.00;;;;;20.06;55.35;101636.94;4891560;29;45593;-69
2021/07/08 06:35:20;;;;;;;;;4.50;4.50;;;;;20.10;55.51;101646.63;4898166;29;45377;-69
2021/07/08 06:37:46;;;;;;;;;3.25;3.25;;;;;20.16;55.28;101635.41;4894463;29;45185;-69
2021/07/08 06:40:13;;;;;;;;;6.25;4.25;;;;;20.20;55.59;101638.81;4892020;29;45471;-66
2021/07/08 06:42:39;;;;;;;;;5.25;4.50;;;;;20.25;54.83;101637.59;4894614;28;45558;-67
2021/07/08 06:45:06;;;;;;;;;5.50;4.25;;;;;20.24;54.76;101643.97;4886841;29;46112;-66
2021/07/08 06:47:38;;;;;;;;;4.25;4.00;;;;;20.25;54.81;101647.59;4887855;29;45342;-70
2021/07/08 06:50:06;;;;;;;;;4.50;4.50;;;;;20.27;55.15;101651.94;4887086;29;45478;-70
2021/07/08 06:52:31;;;;;;;;;4.50;3.00;;;;;20.30;55.33;101650.91;4887234;29;45531;-66
2021/07/08 06:54:56;;;;;;;;;3.50;3.50;;;;;20.32;55.56;101652.53;4903127;29;45429;-66
2021/07/08 06:57:22;;;;;;;;;4.00;4.00;;;;;20.34;55.29;101656.03;4902978;29;52242;-66
2021/07/08 06:59:48;;;;;;;;;3.75;2.75;;;;;20.40;54.97;101664.75;4891701;29;45492;-65
2021/07/08 07:02:13;;;;;;;;;4.00;4.00;;;;;20.43;54.51;101667.28;4890847;29;45476;-66
2021/07/08 07:04:38;;;;;;;;;5.50;5.50;;;;;20.46;54.68;101667.13;4896855;29;45477;-66
2021/07/08 07:07:04;;;;;;;;;3.00;3.00;;;;;20.52;54.60;101672.19;4890505;29;45386;-66
2021/07/08 07:09:29;;;;;;;;;5.50;4.00;;;;;20.53;54.27;101671.19;4881724;29;45369;-65
2021/07/08 07:11:55;;;;;;;;;5.00;5.00;;;;;20.57;54.50;101675.50;4892227;29;45255;-65
2021/07/08 07:14:20;;;;;;;;;5.00;5.00;;;;;20.62;54.21;101681.50;4897550;29;45762;-65
2021/07/08 07:16:45;;;;;;;;;6.00;4.25;;;;;20.63;54.22;101675.16;4886732;29;45864;-66
2021/07/08 07:19:11;;;;;;;;;6.25;5.25;;;;;20.68;54.25;101680.28;4890695;29;45390;-65
2021/07/08 07:21:36;;;;;;;;;5.00;3.75;;;;;20.69;54.42;101674.78;4885584;29;45238;-66
2021/07/08 07:24:02;;;;;;;;;4.00;4.00;;;;;20.69;54.26;101684.75;4895102;29;45337;-65
2021/07/08 07:26:28;;;;;;;;;5.75;5.75;;;;;20.69;54.10;101677.50;4896353;29;45583;-65
2021/07/08 07:28:53;;;;;;;;;8.00;7.25;;;;;20.71;53.85;101677.41;4886240;29;45347;-65
2021/07/08 07:31:18;;;;;;;;;7.00;7.00;;;;;20.75;54.18;101681.69;4889875;29;47389;-66
2021/07/08 07:33:44;;;;;;;;;7.50;6.50;;;;;20.76;54.23;101683.41;4898933;29;47317;-66
2021/07/08 07:36:10;;;;;;;;;7.75;6.75;;;;;20.78;54.08;101684.22;4894662;29;45381;-65
2021/07/08 07:38:37;;;;;;;;;5.00;5.00;;;;;20.80;54.27;101686.81;4887126;29;45433;-65
2021/07/08 07:41:03;;;;;;;;;8.50;7.50;;;;;20.82;54.01;101682.19;4899990;29;45574;-65
2021/07/08 07:43:29;;;;;;;;;6.00;5.25;;;;;20.83;55.07;101684.81;4887639;29;46232;-65
2021/07/08 07:45:54;;;;;;;;;7.00;7.00;;;;;20.86;54.31;101681.03;4885068;29;45341;-65
2021/07/08 07:48:19;;;;;;;;;6.75;6.25;;;;;20.89;54.11;101688.97;4887318;29;45425;-65
2021/07/08 07:50:45;;;;;;;;;7.75;7.50;;;;;20.92;54.47;101691.50;4896408;29;45234;-66
2021/07/08 07:53:11;;;;;;;;;7.50;6.75;;;;;20.89;54.20;101689.84;4886402;29;46126;-66
2021/07/08 07:55:37;;;;;;;;;10.00;10.00;;;;;21.01;54.41;101696.38;4884486;29;45406;-66
2021/07/08 07:58:02;;;;;;;;;9.75;5.75;;;;;21.05;54.44;101695.22;4889354;29;45283;-66
2021/07/08 08:00:29;;;;;;;;;6.75;5.25;;;;;21.04;53.72;101688.03;4896224;29;45325;-66
2021/07/08 08:02:56;;;;;;;;;5.00;5.00;;;;;21.14;53.69;101704.63;4886471;29;45430;-67
2021/07/08 08:05:34;;;;;;;;;5.50;4.75;;;;;21.18;54.06;101705.31;4885924;29;45440;-65
2021/07/08 08:10:45;;;;;;;;;4.00;4.00;;;;;21.29;54.05;101703.69;4896962;29;45428;-66
2021/07/08 08:13:11;;;;;;;;;4.50;4.50;;;;;21.29;53.53;101692.81;4885066;29;45335;-65
2021/07/08 08:15:37;;;;;;;;;3.75;3.75;;;;;21.39;53.50;101697.69;4867798;29;45382;-66
2021/07/08 08:18:03;;;;;;;;;5.75;5.25;;;;;21.44;53.74;101692.84;4885077;29;45389;-66
2021/07/08 08:20:30;;;;;;;;;6.00;4.00;;;;;21.47;53.38;101700.81;4884800;29;45457;-65
2021/07/08 08:22:56;;;;;;;;;4.25;4.25;;;;;21.51;53.84;101694.22;4885190;29;46302;-66
2021/07/08 08:25:22;;;;;;;;;4.00;4.00;;;;;21.55;54.04;101692.16;4886956;29;45650;-66
2021/07/08 08:27:48;;;;;;;;;3.50;3.50;;;;;21.56;53.15;101696.66;4884780;29;45441;-66
2021/07/08 08:30:14;;;;;;;;;5.50;5.00;;;;;21.57;53.29;101684.81;4884917;29;45360;-66
2021/07/08 08:32:43;;;;;;;;;7.00;5.75;;;;;21.63;53.83;101690.72;4884909;29;46951;-66
2021/07/08 08:35:10;;;;;;;;;5.00;5.00;;;;;21.67;53.56;101685.97;4884403;29;45511;-66
2021/07/08 08:37:36;;;;;;;;;5.25;5.25;;;;;21.71;52.55;101682.06;4885059;29;45403;-66
2021/07/08 08:40:03;;;;;;;;;4.25;4.25;;;;;21.66;53.22;101681.50;4884640;29;45618;-65
2021/07/08 08:42:28;;;;;;;;;4.00;4.00;;;;;21.68;53.44;101686.84;4898620;29;45406;-66
2021/07/08 08:44:56;;;;;;;;;4.25;4.25;;;;;21.65;53.23;101687.88;4883074;29;45541;-65
2021/07/08 08:47:22;;;;;;;;;5.75;5.00;;;;;21.67;53.03;101685.97;4884893;29;45356;-65
2021/07/08 08:49:54;;;;;;;;;3.00;3.00;;;;;21.73;52.81;101690.13;4891375;29;45327;-66
2021/07/08 08:52:21;;;;;;;;;3.25;3.25;;;;;21.75;52.09;101697.22;4888222;29;46439;-65
2021/07/08 08:54:47;;;;;;;;;4.50;4.50;;;;;21.77;52.75;101699.84;4884074;29;45449;-66
2021/07/08 08:57:13;;;;;;;;;6.00;5.00;;;;;21.73;52.65;101690.13;4894653;29;45390;-66
2021/07/08 08:59:38;;;;;;;;;5.00;4.00;;;;;21.77;52.99;101692.56;4887036;29;45620;-68
2021/07/08 09:02:11;;;;;;;;;4.00;3.50;;;;;21.84;51.87;101693.88;4884459;29;51408;-66
2021/07/08 09:04:36;;;;;;;;;4.50;3.25;;;;;21.86;52.19;101701.94;4884828;29;45439;-66
2021/07/08 09:07:28;;;;;;;;;6.50;5.25;;;;;21.88;51.62;101699.13;4885116;29;45284;-66
2021/07/08 09:09:56;;;;;;;;;4.00;4.00;;;;;21.88;51.23;101699.13;4903633;29;45344;-65
2021/07/08 09:12:23;;;;;;;;;5.25;4.00;;;;;21.87;51.19;101702.81;4901001;29;46955;-66
2021/07/08 09:15:12;;;;;;;;;6.75;5.75;;;;;21.87;51.31;101700.09;4884691;29;45446;-66
2021/07/08 09:17:41;;;;;;;;;5.00;5.00;;;;;21.89;51.91;101696.31;4884288;29;45484;-66
2021/07/08 09:20:13;;;;;;;;;4.25;4.25;;;;;21.87;51.72;101689.22;4884723;29;45269;-66
2021/07/08 09:22:39;;;;;;;;;3.75;3.75;;;;;21.93;50.90;101696.97;4867703;29;46551;-66
2021/07/08 09:25:21;;;;;;;;;3.25;3.25;;;;;21.94;50.20;101690.59;4888538;29;45262;-66
2021/07/08 09:27:47;;;;;;;;;4.50;3.00;;;;;21.92;51.15;101693.41;4886671;29;45322;-66
2021/07/08 09:30:33;;;;;;;;;3.00;3.00;;;;;21.91;50.60;101697.09;4887700;29;45483;-65
2021/07/08 09:32:59;;;;;;;;;3.50;3.50;;;;;21.91;49.87;101688.94;4885467;29;47055;-70
2021/07/08 09:35:35;;;;;;;;;4.50;2.75;;;;;21.92;49.75;101687.97;4884024;29;45331;-70
2021/07/08 09:38:12;;;;;;;;;4.00;4.00;;;;;21.94;50.07;101686.00;4887273;29;45290;-70
2021/07/08 09:40:39;;;;;;;;;2.75;2.75;;;;;21.98;49.51;101687.53;4881491;29;45422;-70
2021/07/08 09:43:05;;;;;;;;;3.50;2.00;;;;;21.98;49.46;101682.09;4896741;29;45454;-70
2021/07/08 09:45:44;;;;;;;;;3.00;2.50;;;;;22.01;49.90;101690.06;4892169;29;45559;-70
2021/07/08 09:48:18;;;;;;;;;2.25;2.25;;;;;22.01;49.55;101691.91;4868792;29;45262;-70
2021/07/08 09:50:44;;;;;;;;;5.00;3.50;;;;;21.98;49.58;101670.38;4889925;29;46231;-70
2021/07/08 09:53:18;;;;;;;;;2.50;2.50;;;;;22.02;49.39;101675.50;4902333;29;46195;-70
2021/07/08 09:56:05;;;;;;;;;3.00;3.00;;;;;22.08;49.05;101676.94;4894640;29;45489;-70
2021/07/08 09:58:31;;;;;;;;;3.00;3.00;;;;;22.13;49.25;101680.22;4894724;29;45250;-70
2021/07/08 10:01:10;;;;;;;;;3.25;3.25;;;;;22.16;49.12;101673.72;4901979;29;45325;-70
2021/07/08 10:03:36;;;;;;;;;3.00;3.00;;;;;22.18;49.88;101669.91;4889005;29;46284;-70
2021/07/08 10:06:02;;;;;;;;;3.25;3.25;;;;;22.28;48.96;101677.47;4896869;29;45378;-72
2021/07/08 10:08:29;;;;;;;;;3.00;3.00;;;;;22.32;48.69;101679.03;4903023;29;45486;-70
2021/07/08 10:10:54;;;;;;;;;5.00;3.50;;;;;22.33;49.39;101673.47;4890103;29;45497;-70
2021/07/08 10:13:19;;;;;;;;;2.75;2.75;;;;;22.39;49.12;101675.78;4885644;29;45571;-70
2021/07/08 10:15:47;;;;;;;;;3.75;3.75;;;;;22.44;49.18;101678.22;4888062;29;45344;-70
2021/07/08 10:18:13;;;;;;;;;5.00;5.00;;;;;22.46;48.81;101673.53;4905277;29;45372;-70
2021/07/08 10:20:39;;;;;;;;;4.50;3.25;;;;;22.52;48.26;101680.41;4901661;29;45595;-70
2021/07/08 10:23:05;;;;;;;;;4.50;4.00;;;;;22.54;48.50;101682.06;4876993;29;46094;-69
2021/07/08 10:25:30;;;;;;;;;5.00;4.25;;;;;22.57;47.56;101680.97;4896932;29;45408;-69
2021/07/08 10:27:57;;;;;;;;;3.00;3.00;;;;;22.60;48.13;101686.19;4900335;29;45854;-70
2021/07/08 10:30:24;;;;;;;;;4.25;4.25;;;;;22.64;48.07;101681.44;4889835;29;45464;-70
2021/07/08 10:32:57;;;;;;;;;5.50;3.00;;;;;22.69;47.97;101680.13;4889456;29;46214;-70
2021/07/08 10:35:48;;;;;;;;;4.75;4.00;;;;;22.79;47.91;101684.91;4884676;29;45605;-70
2021/07/08 10:38:38;;;;;;;;;3.25;3.25;;;;;22.83;47.95;101672.84;4893231;29;45516;-66
2021/07/08 10:41:09;;;;;;;;;4.00;4.00;;;;;22.88;48.34;101677.00;4891215;29;45738;-66
2021/07/08 10:43:41;;;;;;;;;3.75;3.75;;;;;22.93;47.83;101668.50;4874631;29;47199;-66
2021/07/08 10:46:11;;;;;;;;;5.00;5.00;;;;;22.93;47.16;101682.13;4904468;29;45415;-67
2021/07/08 10:48:47;;;;;;;;;7.00;6.00;;;;;22.94;47.37;101681.16;4904647;29;45416;-66
2021/07/08 10:51:18;;;;;;;;;6.25;5.00;;;;;22.94;47.45;101682.00;4904110;29;45438;-66
2021/07/08 10:53:46;;;;;;;;;4.75;4.75;;;;;22.93;47.82;101682.97;4889958;29;45495;-66
2021/07/08 10:56:14;;;;;;;;;4.00;4.00;;;;;22.91;47.96;101678.63;4898763;29;45450;-66
2021/07/08 10:58:51;;;;;;;;;5.25;4.00;;;;;22.92;47.89;101686.72;4902741;29;45288;-66
2021/07/08 11:01:22;;;;;;;;;3.00;3.00;;;;;22.90;47.96;101685.94;4903550;29;45334;-66
2021/07/08 11:03:51;;;;;;;;;5.00;4.50;;;;;22.90;47.79;101682.34;4897464;29;45448;-66
2021/07/08 11:06:18;;;;;;;;;5.25;4.00;;;;;22.88;47.62;101690.59;4885481;29;45557;-66
2021/07/08 11:08:47;;;;;;;;;6.00;6.00;;;;;22.88;48.12;101687.88;4885921;29;45544;-66
2021/07/08 11:11:33;;;;;;;;;4.25;4.25;;;;;22.87;48.74;101698.88;4884946;29;45468;-66
2021/07/08 11:14:21;;;;;;;;;5.50;4.75;;;;;22.86;48.25;101698.00;4886245;29;45435;-66
2021/07/08 11:17:02;;;;;;;;;6.50;5.25;;;;;22.86;48.02;101703.47;4885017;29;45957;-66
2021/07/08 11:19:27;;;;;;;;;6.75;6.00;;;;;22.85;48.55;101692.66;4885037;29;45419;-66
2021/07/08 11:21:53;;;;;;;;;5.00;4.00;;;;;22.89;49.23;101691.50;4887704;29;45459;-66
2021/07/08 11:24:43;;;;;;;;;5.75;5.75;;;;;22.93;49.31;101704.75;4900969;29;46425;-66
2021/07/08 11:27:16;;;;;;;;;5.25;5.25;;;;;22.90;48.58;101685.94;4891022;29;46019;-66